Time;durP1;ratioP1;P1;durP2;ratioP2;P2;SDS_P1;SDS_P2;PMS_P1;PMS_P2;Temp;Humidity;BMP_temperature;BMP_pressure;BME280_temperature;BME280_humidity;BME280_pressure;Samples;Min_cycle;Max_cycle;Signal;HPM_P1;HPM_P2
2021/08/03 00:00:14;;;;;;;8.98;4.18;;;;;;;;;;5001399;28;20068;-81
2021/08/03 00:02:45;;;;;;;14.55;4.40;;;;;;;;;;4988832;28;20118;-81
2021/08/03 00:05:16;;;;;;;9.75;4.43;;;;;;;;;;4995372;28;20026;-80
2021/08/03 00:07:45;;;;;;;8.68;3.72;;;;;;;;;;4967823;28;20034;-81
2021/08/03 00:10:11;;;;;;;9.57;3.70;;;;;;;;;;4986243;28;20587;-82
2021/08/03 00:12:36;;;;;;;8.48;4.35;;;;;;;;;;4968039;28;20065;-78
2021/08/03 00:15:02;;;;;;;8.80;4.20;;;;;;;;;;4989034;28;20045;-78
2021/08/03 00:17:28;;;;;;;11.93;4.60;;;;;;;;;;4991667;28;20022;-77
2021/08/03 00:19:54;;;;;;;8.50;4.07;;;;;;;;;;4991676;28;20056;-78
2021/08/03 00:22:23;;;;;;;9.02;4.03;;;;;;;;;;4960966;28;20066;-78
2021/08/03 00:24:50;;;;;;;9.02;4.10;;;;;;;;;;4994887;28;20072;-78
2021/08/03 00:27:16;;;;;;;8.88;3.97;;;;;;;;;;4992084;28;20034;-78
2021/08/03 00:29:42;;;;;;;8.93;4.03;;;;;;;;;;4987707;28;20030;-78
2021/08/03 00:32:08;;;;;;;11.27;4.18;;;;;;;;;;4990336;28;20036;-78
2021/08/03 00:34:37;;;;;;;11.85;4.82;;;;;;;;;;4989689;28;20041;-77
2021/08/03 00:37:07;;;;;;;16.92;5.40;;;;;;;;;;4975421;28;20041;-77
2021/08/03 00:39:33;;;;;;;9.60;4.03;;;;;;;;;;4984464;28;20425;-77
2021/08/03 00:42:01;;;;;;;11.63;4.32;;;;;;;;;;4986509;28;20044;-77
2021/08/03 00:44:56;;;;;;;10.93;4.35;;;;;;;;;;4988220;28;20133;-77
2021/08/03 00:47:22;;;;;;;9.82;4.30;;;;;;;;;;4986247;28;20054;-77
2021/08/03 00:49:48;;;;;;;11.27;4.53;;;;;;;;;;4983320;28;20089;-77
2021/08/03 00:52:15;;;;;;;8.10;4.30;;;;;;;;;;4991353;28;20030;-77
2021/08/03 00:54:41;;;;;;;9.60;4.05;;;;;;;;;;4976778;28;20033;-76
2021/08/03 00:57:08;;;;;;;11.30;4.57;;;;;;;;;;4996368;28;20037;-77
2021/08/03 00:59:34;;;;;;;14.05;5.35;;;;;;;;;;4998461;28;20030;-77
2021/08/03 01:02:02;;;;;;;10.73;4.50;;;;;;;;;;4976905;28;20038;-77
2021/08/03 01:04:27;;;;;;;11.90;4.72;;;;;;;;;;4972908;28;20053;-77
2021/08/03 01:06:59;;;;;;;11.20;4.47;;;;;;;;;;4988477;28;20068;-77
2021/08/03 01:10:05;;;;;;;14.88;4.50;;;;;;;;;;4984912;28;20022;-77
2021/08/03 01:12:50;;;;;;;11.18;4.60;;;;;;;;;;4988233;28;20082;-77
2021/08/03 01:15:26;;;;;;;10.32;4.38;;;;;;;;;;4987538;28;20500;-81
2021/08/03 01:18:14;;;;;;;16.42;5.43;;;;;;;;;;4994846;28;20058;-82
2021/08/03 01:20:54;;;;;;;11.85;5.20;;;;;;;;;;4986976;28;20026;-82
2021/08/03 01:23:37;;;;;;;10.55;4.90;;;;;;;;;;4988928;28;20038;-83
2021/08/03 01:26:47;;;;;;;10.15;4.10;;;;;;;;;;4990223;28;20034;-83
2021/08/03 01:29:17;;;;;;;13.00;5.15;;;;;;;;;;4968568;28;20077;-82
2021/08/03 01:31:48;;;;;;;9.63;4.70;;;;;;;;;;4978931;28;20054;-81
2021/08/03 01:34:16;;;;;;;22.02;5.68;;;;;;;;;;4998045;28;20060;-82
2021/08/03 01:36:48;;;;;;;14.77;5.13;;;;;;;;;;4982089;28;20031;-82
2021/08/03 01:39:16;;;;;;;12.48;5.63;;;;;;;;;;4992749;28;20136;-82
2021/08/03 01:41:45;;;;;;;13.57;5.30;;;;;;;;;;4992198;28;20030;-82
2021/08/03 01:44:12;;;;;;;13.43;5.72;;;;;;;;;;4988177;28;20404;-78
2021/08/03 01:46:40;;;;;;;9.93;4.93;;;;;;;;;;4992792;28;20489;-78
2021/08/03 01:49:07;;;;;;;13.85;5.03;;;;;;;;;;4993469;28;20448;-78
2021/08/03 01:51:33;;;;;;;14.80;5.20;;;;;;;;;;4976548;28;20074;-78
2021/08/03 01:53:59;;;;;;;15.60;5.18;;;;;;;;;;4996575;28;20031;-78
2021/08/03 01:56:25;;;;;;;11.40;4.55;;;;;;;;;;4985973;28;20030;-78
2021/08/03 01:58:52;;;;;;;13.73;5.15;;;;;;;;;;4988671;28;20055;-78
2021/08/03 02:01:20;;;;;;;14.25;5.05;;;;;;;;;;4990772;28;20057;-78
2021/08/03 02:03:46;;;;;;;12.70;4.88;;;;;;;;;;4988440;28;20137;-77
2021/08/03 02:06:12;;;;;;;12.15;5.53;;;;;;;;;;4978027;28;20592;-77
2021/08/03 02:08:39;;;;;;;14.32;5.45;;;;;;;;;;5002388;28;20026;-77
2021/08/03 02:11:05;;;;;;;19.60;5.80;;;;;;;;;;4989752;28;20116;-78
2021/08/03 02:13:31;;;;;;;12.02;5.10;;;;;;;;;;4989627;28;20048;-78
2021/08/03 02:15:57;;;;;;;13.00;5.68;;;;;;;;;;4993531;28;20544;-77
2021/08/03 02:18:22;;;;;;;11.65;5.15;;;;;;;;;;4992410;28;20120;-77
2021/08/03 02:20:48;;;;;;;10.80;5.22;;;;;;;;;;4998986;28;20412;-77
2021/08/03 02:23:14;;;;;;;14.73;5.72;;;;;;;;;;4990883;28;20521;-77
2021/08/03 02:25:41;;;;;;;16.02;5.78;;;;;;;;;;4982914;28;20460;-77
2021/08/03 02:28:07;;;;;;;18.23;5.88;;;;;;;;;;4990269;28;20036;-77
2021/08/03 02:30:34;;;;;;;15.65;6.05;;;;;;;;;;5002618;28;20018;-77
2021/08/03 02:33:19;;;;;;;12.25;5.43;;;;;;;;;;4984095;28;20039;-77
2021/08/03 02:35:56;;;;;;;12.57;5.38;;;;;;;;;;4995253;28;20019;-77
2021/08/03 02:38:26;;;;;;;14.48;5.63;;;;;;;;;;5004017;28;20046;-78
2021/08/03 02:40:52;;;;;;;12.48;5.50;;;;;;;;;;4996965;28;20138;-77
2021/08/03 02:43:19;;;;;;;12.02;6.03;;;;;;;;;;4986270;28;20023;-78
2021/08/03 02:45:45;;;;;;;12.57;6.30;;;;;;;;;;4988196;28;20410;-77
2021/08/03 02:48:14;;;;;;;13.80;5.95;;;;;;;;;;4974733;28;20038;-78
2021/08/03 02:50:42;;;;;;;13.18;5.75;;;;;;;;;;4975403;28;20512;-77
2021/08/03 02:53:26;;;;;;;13.38;5.85;;;;;;;;;;4991148;28;20426;-77
2021/08/03 02:56:14;;;;;;;16.30;6.20;;;;;;;;;;4987967;28;20022;-77
2021/08/03 02:58:55;;;;;;;16.75;6.43;;;;;;;;;;4995213;28;20504;-77
2021/08/03 03:01:22;;;;;;;15.15;5.72;;;;;;;;;;4988428;28;20597;-77
2021/08/03 03:03:52;;;;;;;13.48;6.22;;;;;;;;;;4994673;28;20061;-78
2021/08/03 03:06:21;;;;;;;13.35;5.72;;;;;;;;;;4986172;28;20031;-77
2021/08/03 03:08:47;;;;;;;14.45;6.18;;;;;;;;;;4995550;28;20034;-77
2021/08/03 03:11:16;;;;;;;16.92;6.13;;;;;;;;;;4973045;28;20056;-77
2021/08/03 03:13:51;;;;;;;16.25;6.72;;;;;;;;;;4987214;28;20045;-77
2021/08/03 03:16:19;;;;;;;11.88;5.50;;;;;;;;;;4988035;28;20026;-77
2021/08/03 03:18:46;;;;;;;11.85;5.63;;;;;;;;;;5003667;28;20027;-78
2021/08/03 03:21:16;;;;;;;12.93;6.05;;;;;;;;;;4988049;28;20605;-77
2021/08/03 03:23:42;;;;;;;18.50;6.43;;;;;;;;;;4989622;28;21489;-78
2021/08/03 03:26:08;;;;;;;12.60;5.50;;;;;;;;;;4995609;28;20034;-78
2021/08/03 03:28:35;;;;;;;14.48;6.22;;;;;;;;;;4975734;28;20040;-78
2021/08/03 03:31:01;;;;;;;12.65;6.00;;;;;;;;;;4985833;28;20643;-78
2021/08/03 03:33:29;;;;;;;13.52;6.18;;;;;;;;;;5003982;28;20028;-78
2021/08/03 03:35:58;;;;;;;14.63;6.40;;;;;;;;;;4991347;28;20022;-77
2021/08/03 03:38:26;;;;;;;14.40;6.20;;;;;;;;;;4998484;28;20030;-77
2021/08/03 03:40:52;;;;;;;13.18;5.43;;;;;;;;;;4995262;28;20297;-78
2021/08/03 03:43:20;;;;;;;14.45;6.35;;;;;;;;;;4989232;28;20065;-78
2021/08/03 03:46:11;;;;;;;16.00;6.28;;;;;;;;;;4983806;28;20405;-78
2021/08/03 03:48:44;;;;;;;13.75;5.85;;;;;;;;;;4994021;28;20035;-77
2021/08/03 03:51:15;;;;;;;15.73;5.53;;;;;;;;;;5004297;28;20052;-78
2021/08/03 03:53:48;;;;;;;14.57;5.38;;;;;;;;;;5005427;28;20515;-78
2021/08/03 03:56:17;;;;;;;12.40;6.03;;;;;;;;;;4989394;28;20548;-77
2021/08/03 03:58:54;;;;;;;10.43;5.25;;;;;;;;;;4994844;28;20041;-78
2021/08/03 04:01:23;;;;;;;17.50;6.13;;;;;;;;;;4985330;28;20026;-78
2021/08/03 04:03:51;;;;;;;13.85;5.88;;;;;;;;;;4989378;28;20042;-78
2021/08/03 04:06:17;;;;;;;19.45;5.68;;;;;;;;;;4988236;28;20161;-77
2021/08/03 04:08:42;;;;;;;16.65;6.65;;;;;;;;;;4986408;28;20506;-78
2021/08/03 04:11:13;;;;;;;9.75;5.40;;;;;;;;;;4986804;28;20504;-78
2021/08/03 04:13:43;;;;;;;14.68;6.03;;;;;;;;;;4981850;28;20121;-81
2021/08/03 04:16:09;;;;;;;12.25;6.03;;;;;;;;;;4982780;28;20035;-82
2021/08/03 04:18:35;;;;;;;9.27;5.13;;;;;;;;;;4989975;28;20406;-82
2021/08/03 04:21:00;;;;;;;13.20;4.93;;;;;;;;;;5001879;28;20478;-82
2021/08/03 04:23:26;;;;;;;12.40;5.38;;;;;;;;;;4988024;28;20072;-82
2021/08/03 04:25:51;;;;;;;10.25;5.28;;;;;;;;;;4993286;28;20556;-81
2021/08/03 04:28:17;;;;;;;12.77;5.40;;;;;;;;;;4973608;28;20113;-81
2021/08/03 04:30:42;;;;;;;11.68;5.75;;;;;;;;;;4990923;28;20030;-82
2021/08/03 04:33:07;;;;;;;12.70;5.85;;;;;;;;;;4971138;28;20030;-81
2021/08/03 04:35:33;;;;;;;14.70;5.70;;;;;;;;;;4975070;28;20050;-81
2021/08/03 04:37:59;;;;;;;15.90;5.63;;;;;;;;;;4969503;28;20041;-81
2021/08/03 04:40:24;;;;;;;10.65;5.55;;;;;;;;;;4987643;28;20026;-82
2021/08/03 04:42:50;;;;;;;15.98;5.35;;;;;;;;;;4978856;28;20041;-77
2021/08/03 04:45:16;;;;;;;13.90;5.75;;;;;;;;;;4989156;28;20124;-78
2021/08/03 04:47:45;;;;;;;14.20;5.13;;;;;;;;;;4986267;28;20035;-78
2021/08/03 04:50:14;;;;;;;14.15;5.30;;;;;;;;;;4987363;28;20548;-77
2021/08/03 04:52:40;;;;;;;12.93;5.30;;;;;;;;;;4988661;28;20500;-77
2021/08/03 04:55:06;;;;;;;13.82;5.38;;;;;;;;;;4986410;28;20097;-78
2021/08/03 04:57:32;;;;;;;9.52;5.05;;;;;;;;;;4990080;28;20031;-77
2021/08/03 04:59:57;;;;;;;13.60;5.28;;;;;;;;;;4988916;28;20040;-77
2021/08/03 05:02:23;;;;;;;11.85;6.00;;;;;;;;;;4992298;28;20096;-77
2021/08/03 05:04:48;;;;;;;13.10;5.57;;;;;;;;;;4987552;28;20042;-78
2021/08/03 05:07:14;;;;;;;13.55;5.32;;;;;;;;;;4979615;28;20061;-78
2021/08/03 05:09:39;;;;;;;12.80;5.72;;;;;;;;;;4973180;28;20482;-77
2021/08/03 05:12:05;;;;;;;19.27;5.03;;;;;;;;;;5002782;28;20030;-78
2021/08/03 05:14:31;;;;;;;12.07;5.10;;;;;;;;;;4987093;28;20041;-78
2021/08/03 05:16:56;;;;;;;16.70;5.95;;;;;;;;;;4987129;28;20023;-78
2021/08/03 05:19:22;;;;;;;11.88;5.50;;;;;;;;;;4966856;28;20061;-77
2021/08/03 05:21:47;;;;;;;12.18;5.60;;;;;;;;;;4989414;28;20025;-78
2021/08/03 05:24:13;;;;;;;13.00;5.70;;;;;;;;;;4988960;28;20046;-78
2021/08/03 05:26:38;;;;;;;13.25;5.93;;;;;;;;;;4976600;28;20038;-78
2021/08/03 05:29:04;;;;;;;15.13;5.15;;;;;;;;;;4973643;28;20038;-78
2021/08/03 05:31:30;;;;;;;10.82;4.93;;;;;;;;;;5003616;28;20057;-78
2021/08/03 05:33:55;;;;;;;13.70;5.05;;;;;;;;;;4983203;28;20493;-78
2021/08/03 05:36:21;;;;;;;17.60;5.03;;;;;;;;;;4985923;28;20030;-78
2021/08/03 05:38:46;;;;;;;9.95;4.65;;;;;;;;;;4986171;28;20521;-77
2021/08/03 05:41:12;;;;;;;10.73;5.22;;;;;;;;;;4975142;28;20070;-78
2021/08/03 05:43:37;;;;;;;13.70;5.57;;;;;;;;;;4985761;28;20042;-78
2021/08/03 05:46:03;;;;;;;13.02;5.35;;;;;;;;;;4985782;28;20054;-78
2021/08/03 05:48:28;;;;;;;11.68;5.32;;;;;;;;;;4990532;28;20113;-78
2021/08/03 05:50:54;;;;;;;15.35;5.07;;;;;;;;;;4997425;28;20045;-78
2021/08/03 05:53:19;;;;;;;14.55;5.43;;;;;;;;;;4970358;28;20133;-78
2021/08/03 05:55:45;;;;;;;14.75;5.25;;;;;;;;;;4973626;28;20046;-78
2021/08/03 05:58:10;;;;;;;10.32;5.20;;;;;;;;;;4987567;28;20093;-78
2021/08/03 06:00:38;;;;;;;12.02;5.35;;;;;;;;;;4957960;28;20034;-78
2021/08/03 06:03:03;;;;;;;11.82;5.28;;;;;;;;;;4983160;28;20062;-77
2021/08/03 06:05:31;;;;;;;10.65;4.93;;;;;;;;;;4966095;28;20035;-78
2021/08/03 06:08:00;;;;;;;15.50;5.80;;;;;;;;;;4989818;28;20065;-77
2021/08/03 06:10:27;;;;;;;13.77;6.15;;;;;;;;;;4992344;28;20022;-78
2021/08/03 06:12:56;;;;;;;20.17;5.60;;;;;;;;;;4990400;28;20034;-78
2021/08/03 06:15:22;;;;;;;14.93;5.28;;;;;;;;;;4985478;28;20039;-77
2021/08/03 06:18:18;;;;;;;17.55;6.25;;;;;;;;;;4995336;28;20553;-78
2021/08/03 06:20:44;;;;;;;17.80;6.13;;;;;;;;;;4986346;28;20046;-77
2021/08/03 06:23:12;;;;;;;19.60;6.32;;;;;;;;;;4993846;28;20142;-78
2021/08/03 06:25:40;;;;;;;11.50;5.40;;;;;;;;;;4986822;28;20595;-78
2021/08/03 06:28:07;;;;;;;20.65;6.22;;;;;;;;;;4985648;28;20036;-77
2021/08/03 06:30:39;;;;;;;13.93;6.45;;;;;;;;;;4971874;28;20061;-78
2021/08/03 06:33:08;;;;;;;12.73;5.90;;;;;;;;;;4991122;28;20044;-79
2021/08/03 06:35:34;;;;;;;14.40;6.03;;;;;;;;;;4991974;28;20030;-79
2021/08/03 06:37:59;;;;;;;18.48;7.35;;;;;;;;;;4998719;28;20486;-79
2021/08/03 06:40:27;;;;;;;15.13;6.80;;;;;;;;;;4978673;28;20083;-78
2021/08/03 06:42:59;;;;;;;18.02;7.60;;;;;;;;;;4971846;28;20084;-78
2021/08/03 06:45:29;;;;;;;15.50;6.43;;;;;;;;;;5000221;28;20579;-78
2021/08/03 06:48:11;;;;;;;15.95;6.55;;;;;;;;;;4994496;28;20030;-78
2021/08/03 06:50:55;;;;;;;30.15;6.90;;;;;;;;;;4982870;28;20081;-79
2021/08/03 06:53:23;;;;;;;21.77;8.90;;;;;;;;;;4993876;28;20030;-78
2021/08/03 06:55:50;;;;;;;16.83;7.25;;;;;;;;;;4990286;28;20030;-78
2021/08/03 06:58:35;;;;;;;25.02;8.43;;;;;;;;;;5009719;28;20052;-78
2021/08/03 07:01:02;;;;;;;22.33;7.88;;;;;;;;;;4989682;28;20516;-78
2021/08/03 07:03:32;;;;;;;26.38;9.55;;;;;;;;;;4990307;28;20080;-78
2021/08/03 07:05:58;;;;;;;31.17;10.52;;;;;;;;;;4984071;28;20038;-78
2021/08/03 07:08:24;;;;;;;30.05;10.07;;;;;;;;;;4969967;28;20033;-78
2021/08/03 07:10:53;;;;;;;28.40;8.48;;;;;;;;;;4989084;28;20406;-78
2021/08/03 07:13:19;;;;;;;25.08;10.25;;;;;;;;;;4993560;28;20440;-78
2021/08/03 07:15:46;;;;;;;19.10;8.00;;;;;;;;;;4970822;28;20022;-78
2021/08/03 07:18:12;;;;;;;29.45;8.20;;;;;;;;;;4989768;28;20485;-78
2021/08/03 07:20:42;;;;;;;31.83;9.15;;;;;;;;;;4994770;28;20042;-77
2021/08/03 07:23:11;;;;;;;18.67;7.72;;;;;;;;;;4994271;28;20121;-77
2021/08/03 07:25:36;;;;;;;23.63;9.30;;;;;;;;;;4983776;28;20058;-77
2021/08/03 07:28:02;;;;;;;20.65;8.30;;;;;;;;;;4991755;28;20065;-77
2021/08/03 07:30:28;;;;;;;16.92;7.47;;;;;;;;;;4989478;28;20033;-77
2021/08/03 07:32:53;;;;;;;29.30;9.38;;;;;;;;;;4972689;28;20072;-76
2021/08/03 07:35:19;;;;;;;24.60;9.30;;;;;;;;;;4984936;28;20042;-77
2021/08/03 07:37:44;;;;;;;30.23;10.45;;;;;;;;;;4984298;28;20105;-76
2021/08/03 07:40:10;;;;;;;22.15;8.85;;;;;;;;;;4986474;28;20029;-76
2021/08/03 07:42:36;;;;;;;23.15;8.63;;;;;;;;;;4994631;28;20037;-77
2021/08/03 07:45:03;;;;;;;23.20;8.88;;;;;;;;;;4989272;28;20409;-77
2021/08/03 07:47:28;;;;;;;23.33;8.15;;;;;;;;;;4973945;28;20533;-76
2021/08/03 07:49:54;;;;;;;26.52;9.00;;;;;;;;;;4986180;28;20121;-76
2021/08/03 07:52:20;;;;;;;24.92;8.70;;;;;;;;;;4980243;28;20441;-77
2021/08/03 07:54:45;;;;;;;21.55;7.75;;;;;;;;;;4984942;28;20566;-76
2021/08/03 07:57:11;;;;;;;22.67;7.80;;;;;;;;;;4988394;28;20033;-77
2021/08/03 07:59:36;;;;;;;23.02;8.23;;;;;;;;;;4983961;28;20117;-77
2021/08/03 08:02:02;;;;;;;29.20;7.82;;;;;;;;;;4984717;28;20038;-77
2021/08/03 08:04:28;;;;;;;20.92;8.13;;;;;;;;;;4987416;28;20085;-76
2021/08/03 08:06:53;;;;;;;20.23;6.93;;;;;;;;;;4986247;28;20034;-76
2021/08/03 08:09:19;;;;;;;21.88;7.10;;;;;;;;;;4981591;28;20537;-76
2021/08/03 08:11:44;;;;;;;13.38;6.28;;;;;;;;;;4980889;28;20027;-76
2021/08/03 08:14:10;;;;;;;14.77;6.32;;;;;;;;;;4987416;28;20039;-77
2021/08/03 08:16:35;;;;;;;17.42;5.40;;;;;;;;;;4986255;28;20010;-76
2021/08/03 08:19:01;;;;;;;12.60;5.22;;;;;;;;;;4980427;28;20026;-76
2021/08/03 08:21:32;;;;;;;18.40;5.68;;;;;;;;;;4978574;28;20121;-77
2021/08/03 08:23:57;;;;;;;16.33;4.93;;;;;;;;;;4964680;28;20037;-76
2021/08/03 08:26:23;;;;;;;16.58;5.18;;;;;;;;;;4977830;28;20038;-77
2021/08/03 08:28:48;;;;;;;12.88;4.85;;;;;;;;;;4979335;28;20125;-77
2021/08/03 08:31:15;;;;;;;21.63;5.53;;;;;;;;;;4983697;28;20494;-76
2021/08/03 08:33:41;;;;;;;15.63;5.75;;;;;;;;;;4981135;28;20038;-76
2021/08/03 08:36:06;;;;;;;16.88;5.32;;;;;;;;;;4966860;28;20041;-77
2021/08/03 08:38:32;;;;;;;14.05;4.95;;;;;;;;;;4968207;28;20035;-77
2021/08/03 08:40:58;;;;;;;8.75;4.05;;;;;;;;;;4987201;28;20164;-76
2021/08/03 08:43:25;;;;;;;12.15;4.30;;;;;;;;;;4981508;28;20520;-76
2021/08/03 08:45:54;;;;;;;14.30;3.83;;;;;;;;;;4976536;28;20046;-77
2021/08/03 08:48:20;;;;;;;10.98;4.25;;;;;;;;;;4983721;28;20026;-77
2021/08/03 08:50:46;;;;;;;17.55;4.57;;;;;;;;;;4963645;28;20045;-77
2021/08/03 08:53:12;;;;;;;8.45;3.50;;;;;;;;;;4987943;28;20042;-77
2021/08/03 08:55:38;;;;;;;8.52;3.83;;;;;;;;;;4986036;28;20030;-76
2021/08/03 08:58:04;;;;;;;16.15;4.22;;;;;;;;;;4985601;28;20580;-76
2021/08/03 09:00:29;;;;;;;12.25;5.20;;;;;;;;;;4989236;28;20038;-77
2021/08/03 09:02:56;;;;;;;10.50;4.25;;;;;;;;;;4978815;28;20055;-76
2021/08/03 09:05:29;;;;;;;12.68;4.55;;;;;;;;;;4981263;28;20034;-76
2021/08/03 09:07:56;;;;;;;15.90;4.32;;;;;;;;;;4999172;28;20045;-76
2021/08/03 09:10:31;;;;;;;11.48;4.50;;;;;;;;;;4985838;28;20030;-76
2021/08/03 09:13:15;;;;;;;15.30;5.03;;;;;;;;;;4981846;28;20574;-76
2021/08/03 09:15:46;;;;;;;13.68;4.80;;;;;;;;;;4988369;28;20023;-76
2021/08/03 09:18:46;;;;;;;12.13;5.25;;;;;;;;;;4986305;28;20040;-76
2021/08/03 09:21:27;;;;;;;17.10;4.78;;;;;;;;;;4979907;28;20124;-77
2021/08/03 09:23:54;;;;;;;12.05;5.07;;;;;;;;;;4987332;28;20030;-76
2021/08/03 09:26:38;;;;;;;20.02;6.50;;;;;;;;;;4988626;28;20032;-77
2021/08/03 09:29:12;;;;;;;14.80;4.57;;;;;;;;;;4998564;28;20042;-76
2021/08/03 09:31:39;;;;;;;13.20;5.05;;;;;;;;;;4993612;28;20030;-76
2021/08/03 09:34:13;;;;;;;17.67;6.50;;;;;;;;;;4984962;28;20054;-76
2021/08/03 09:36:56;;;;;;;8.82;5.03;;;;;;;;;;4970309;28;20030;-76
2021/08/03 09:39:45;;;;;;;14.05;5.72;;;;;;;;;;4995585;28;20033;-77
2021/08/03 09:42:23;;;;;;;12.82;5.40;;;;;;;;;;5003368;28;20034;-77
2021/08/03 09:44:56;;;;;;;9.77;4.97;;;;;;;;;;4988079;28;20692;-77
2021/08/03 09:47:23;;;;;;;12.55;4.93;;;;;;;;;;4989264;28;20788;-77
2021/08/03 09:49:52;;;;;;;13.80;5.18;;;;;;;;;;4987776;28;20567;-77
2021/08/03 09:52:22;;;;;;;12.05;5.13;;;;;;;;;;4984236;28;20230;-77
2021/08/03 09:54:48;;;;;;;13.13;5.30;;;;;;;;;;5000123;28;20026;-79
2021/08/03 09:57:22;;;;;;;12.75;5.10;;;;;;;;;;5000868;28;20414;-79
2021/08/03 09:59:49;;;;;;;18.23;4.95;;;;;;;;;;4983370;28;20046;-79
2021/08/03 10:02:21;;;;;;;12.90;4.53;;;;;;;;;;4981608;28;20034;-78
2021/08/03 10:04:47;;;;;;;12.05;4.18;;;;;;;;;;4986532;28;20062;-79
2021/08/03 10:07:13;;;;;;;12.60;4.20;;;;;;;;;;4981918;28;20106;-79
2021/08/03 10:09:39;;;;;;;16.27;5.25;;;;;;;;;;4987766;28;20133;-81
2021/08/03 10:12:05;;;;;;;12.57;4.90;;;;;;;;;;4992277;28;20032;-78
2021/08/03 10:14:31;;;;;;;21.70;4.97;;;;;;;;;;4990330;28;20502;-78
2021/08/03 10:16:56;;;;;;;12.45;4.38;;;;;;;;;;4976462;28;20728;-79
2021/08/03 10:19:33;;;;;;;9.43;4.03;;;;;;;;;;4989585;28;20034;-78
2021/08/03 10:22:21;;;;;;;9.43;4.85;;;;;;;;;;4991001;28;20030;-78
2021/08/03 10:25:06;;;;;;;17.13;4.78;;;;;;;;;;4992787;28;20026;-77
2021/08/03 10:27:40;;;;;;;32.75;6.32;;;;;;;;;;4989023;28;20034;-76
2021/08/03 10:30:06;;;;;;;8.90;4.18;;;;;;;;;;4988589;28;20386;-77
2021/08/03 10:32:43;;;;;;;12.93;4.88;;;;;;;;;;4989601;28;20033;-76
2021/08/03 10:35:19;;;;;;;11.63;4.65;;;;;;;;;;4988543;28;20119;-77
2021/08/03 10:38:07;;;;;;;14.43;4.43;;;;;;;;;;4997561;28;20058;-77
2021/08/03 10:41:02;;;;;;;10.80;4.18;;;;;;;;;;4992689;28;20113;-77
2021/08/03 10:43:34;;;;;;;13.48;4.60;;;;;;;;;;4993459;28;20494;-77
2021/08/03 10:46:06;;;;;;;10.60;4.25;;;;;;;;;;4991878;28;20054;-77
2021/08/03 10:48:38;;;;;;;12.48;4.93;;;;;;;;;;4993093;28;20038;-77
2021/08/03 10:51:13;;;;;;;14.07;4.72;;;;;;;;;;4990558;28;20664;-77
2021/08/03 10:53:59;;;;;;;13.20;4.32;;;;;;;;;;4990307;28;20519;-77
2021/08/03 10:56:26;;;;;;;12.98;3.90;;;;;;;;;;4994461;28;20526;-77
2021/08/03 10:59:30;;;;;;;11.25;4.47;;;;;;;;;;4991074;28;20728;-77
2021/08/03 11:01:55;;;;;;;14.50;4.80;;;;;;;;;;4995131;28;20031;-78
2021/08/03 11:04:40;;;;;;;12.05;4.03;;;;;;;;;;4989231;28;20095;-77
2021/08/03 11:07:26;;;;;;;10.25;4.28;;;;;;;;;;4985677;28;20393;-77
2021/08/03 11:09:57;;;;;;;16.42;4.60;;;;;;;;;;4994549;28;20034;-77
2021/08/03 11:12:44;;;;;;;18.80;4.90;;;;;;;;;;4982276;28;20034;-78
2021/08/03 11:15:21;;;;;;;14.65;4.78;;;;;;;;;;4993642;28;20027;-77
2021/08/03 11:18:14;;;;;;;11.15;5.45;;;;;;;;;;5001423;28;20018;-77
2021/08/03 11:20:44;;;;;;;16.02;5.10;;;;;;;;;;5004187;28;20037;-78
2021/08/03 11:23:13;;;;;;;11.82;4.50;;;;;;;;;;5012011;28;20034;-76
2021/08/03 11:25:41;;;;;;;14.07;4.93;;;;;;;;;;5000007;28;20030;-78
2021/08/03 11:28:16;;;;;;;10.80;4.63;;;;;;;;;;4999911;28;20035;-78
2021/08/03 11:30:43;;;;;;;12.73;4.72;;;;;;;;;;5000708;28;20030;-78
2021/08/03 11:33:11;;;;;;;13.88;4.80;;;;;;;;;;4998037;28;20456;-77
2021/08/03 11:35:37;;;;;;;12.15;4.63;;;;;;;;;;4993058;28;20053;-78
2021/08/03 11:38:04;;;;;;;11.13;4.65;;;;;;;;;;5004067;28;20069;-76
2021/08/03 11:40:30;;;;;;;13.50;5.30;;;;;;;;;;4987403;28;20460;-77
2021/08/03 11:42:57;;;;;;;18.17;5.15;;;;;;;;;;4976806;28;20038;-77
2021/08/03 11:45:24;;;;;;;15.25;5.63;;;;;;;;;;4997585;28;20141;-77
2021/08/03 11:47:55;;;;;;;18.85;5.55;;;;;;;;;;4995714;28;20038;-77
2021/08/03 11:50:39;;;;;;;12.50;5.40;;;;;;;;;;4997900;28;20091;-77
2021/08/03 11:53:09;;;;;;;11.02;4.80;;;;;;;;;;4995582;28;20026;-77
2021/08/03 11:55:38;;;;;;;14.38;4.85;;;;;;;;;;4992805;28;20053;-77
2021/08/03 11:58:07;;;;;;;15.25;4.85;;;;;;;;;;4991665;28;20060;-77
2021/08/03 12:00:34;;;;;;;9.93;4.60;;;;;;;;;;4981567;28;20038;-77
2021/08/03 12:03:01;;;;;;;10.60;4.30;;;;;;;;;;4992416;28;20091;-77
2021/08/03 12:05:34;;;;;;;20.48;5.32;;;;;;;;;;4976914;28;20049;-77
2021/08/03 12:08:13;;;;;;;35.58;5.10;;;;;;;;;;5001225;28;20045;-77
2021/08/03 12:10:43;;;;;;;19.90;4.60;;;;;;;;;;4999473;28;20038;-77
2021/08/03 12:13:12;;;;;;;12.45;3.75;;;;;;;;;;4992983;28;20034;-76
2021/08/03 12:15:52;;;;;;;14.88;4.15;;;;;;;;;;4994404;28;20080;-77
2021/08/03 12:18:18;;;;;;;12.75;4.15;;;;;;;;;;4996897;28;20062;-76
2021/08/03 12:20:57;;;;;;;16.23;4.47;;;;;;;;;;4983616;28;20062;-78
2021/08/03 12:23:27;;;;;;;13.18;5.07;;;;;;;;;;4997661;28;20054;-80
2021/08/03 12:26:06;;;;;;;12.88;4.53;;;;;;;;;;4988891;28;20014;-80
2021/08/03 12:28:58;;;;;;;10.68;4.65;;;;;;;;;;4983821;28;20027;-80
2021/08/03 12:31:41;;;;;;;14.32;4.38;;;;;;;;;;4986604;28;20037;-80
2021/08/03 12:34:13;;;;;;;10.43;4.45;;;;;;;;;;4987060;28;20115;-80
2021/08/03 12:36:41;;;;;;;7.80;4.05;;;;;;;;;;4976345;28;20029;-79
2021/08/03 12:39:23;;;;;;;5.68;2.53;;;;;;;;;;4988424;28;20034;-79
2021/08/03 12:45:11;;;;;;;6.28;2.85;;;;;;;;;;4986396;28;20046;-79
2021/08/03 12:47:36;;;;;;;10.02;2.55;;;;;;;;;;4986210;28;20056;-79
2021/08/03 12:50:08;;;;;;;6.88;2.30;;;;;;;;;;4962020;28;20038;-79
2021/08/03 12:52:34;;;;;;;7.07;1.83;;;;;;;;;;5011604;28;20034;-80
2021/08/03 12:55:09;;;;;;;4.07;1.63;;;;;;;;;;4990078;28;20031;-79
2021/08/03 12:57:56;;;;;;;5.57;1.70;;;;;;;;;;5010800;28;20049;-79
2021/08/03 13:00:27;;;;;;;8.27;1.50;;;;;;;;;;4990140;28;20708;-79
2021/08/03 13:02:53;;;;;;;3.70;1.90;;;;;;;;;;4989646;28;21045;-80
2021/08/03 13:05:18;;;;;;;6.18;1.98;;;;;;;;;;4991063;28;20084;-79
2021/08/03 13:07:44;;;;;;;2.42;1.15;;;;;;;;;;4997406;28;20393;-80
2021/08/03 13:10:10;;;;;;;3.65;1.58;;;;;;;;;;4996787;28;20050;-79
2021/08/03 13:12:35;;;;;;;3.85;1.90;;;;;;;;;;4998459;28;20045;-80
2021/08/03 13:15:00;;;;;;;4.88;2.13;;;;;;;;;;4980912;28;20030;-80
2021/08/03 13:17:26;;;;;;;4.93;1.58;;;;;;;;;;4955643;28;20053;-79
2021/08/03 13:19:51;;;;;;;6.03;2.00;;;;;;;;;;4987030;28;20062;-80
2021/08/03 13:22:17;;;;;;;8.45;2.13;;;;;;;;;;4989884;28;20413;-80
2021/08/03 13:24:42;;;;;;;3.28;1.75;;;;;;;;;;4991077;28;20034;-78
2021/08/03 13:27:08;;;;;;;6.63;1.98;;;;;;;;;;4994302;28;20471;-78
2021/08/03 13:29:33;;;;;;;5.13;2.00;;;;;;;;;;4983992;28;20041;-78
2021/08/03 13:31:59;;;;;;;5.88;2.78;;;;;;;;;;4997056;28;20053;-78
2021/08/03 13:34:24;;;;;;;10.85;3.50;;;;;;;;;;4981397;28;20036;-78
2021/08/03 13:36:50;;;;;;;12.32;3.53;;;;;;;;;;4982361;28;20540;-78
2021/08/03 13:39:15;;;;;;;9.50;4.07;;;;;;;;;;4979978;28;20074;-78
2021/08/03 13:41:41;;;;;;;8.07;3.53;;;;;;;;;;4972893;28;20048;-77
2021/08/03 13:44:07;;;;;;;9.93;3.83;;;;;;;;;;4986446;28;20056;-78
2021/08/03 13:46:33;;;;;;;11.88;4.03;;;;;;;;;;4991733;28;20046;-78
2021/08/03 13:48:58;;;;;;;9.43;3.53;;;;;;;;;;4989539;28;20040;-77
2021/08/03 13:51:25;;;;;;;11.65;4.13;;;;;;;;;;4991460;28;20045;-78
2021/08/03 13:53:51;;;;;;;9.80;4.15;;;;;;;;;;4990351;28;20647;-78
2021/08/03 13:56:17;;;;;;;10.55;4.32;;;;;;;;;;4995345;28;20038;-78
2021/08/03 13:58:43;;;;;;;11.55;4.95;;;;;;;;;;4988979;28;20036;-78
2021/08/03 14:01:09;;;;;;;7.43;3.92;;;;;;;;;;4990618;28;20034;-78
2021/08/03 14:03:35;;;;;;;13.68;4.10;;;;;;;;;;4985076;28;20105;-77
2021/08/03 14:06:01;;;;;;;7.10;3.58;;;;;;;;;;4983450;28;20112;-77
2021/08/03 14:08:30;;;;;;;10.65;3.90;;;;;;;;;;4991533;28;20030;-77
2021/08/03 14:10:55;;;;;;;6.95;3.47;;;;;;;;;;4993403;28;20050;-77
2021/08/03 14:13:22;;;;;;;10.48;3.90;;;;;;;;;;4988951;28;20502;-78
2021/08/03 14:15:51;;;;;;;9.82;3.75;;;;;;;;;;4952161;28;20030;-77
2021/08/03 14:18:18;;;;;;;6.97;3.45;;;;;;;;;;4995839;28;20081;-77
2021/08/03 14:20:44;;;;;;;7.50;3.40;;;;;;;;;;4985872;28;20026;-77
2021/08/03 14:23:09;;;;;;;10.40;3.90;;;;;;;;;;4976696;28;20497;-79
2021/08/03 14:25:35;;;;;;;7.57;3.28;;;;;;;;;;4973930;28;20057;-79
2021/08/03 14:28:04;;;;;;;13.90;3.97;;;;;;;;;;4990724;28;20377;-79
2021/08/03 14:30:31;;;;;;;8.27;3.85;;;;;;;;;;4979123;28;20398;-79
2021/08/03 14:32:57;;;;;;;7.50;3.30;;;;;;;;;;4980906;28;20065;-80
2021/08/03 14:35:23;;;;;;;16.33;4.13;;;;;;;;;;4988925;28;20030;-80
2021/08/03 14:37:49;;;;;;;12.63;3.70;;;;;;;;;;4992077;28;20125;-79
2021/08/03 14:40:15;;;;;;;7.07;4.00;;;;;;;;;;4981440;28;20469;-79
2021/08/03 14:42:41;;;;;;;10.18;4.38;;;;;;;;;;4984391;28;20497;-79
2021/08/03 14:45:06;;;;;;;10.25;4.95;;;;;;;;;;4970934;28;20031;-79
2021/08/03 14:47:33;;;;;;;10.10;5.38;;;;;;;;;;4987833;28;20030;-80
2021/08/03 14:49:59;;;;;;;12.23;5.50;;;;;;;;;;4982955;28;20026;-79